createdAt,value
2022-08-21T00:02:23.489Z,19
2022-08-21T00:05:48.669Z,19.02
2022-08-21T00:09:13.920Z,19.07
2022-08-21T00:12:39.197Z,19.07
2022-08-21T00:16:04.483Z,19.07
2022-08-21T00:19:29.759Z,19.07
2022-08-21T00:22:55.067Z,19.059999
2022-08-21T00:26:20.304Z,19.07
2022-08-21T00:29:45.560Z,19.049999
2022-08-21T00:33:10.833Z,19.030001
2022-08-21T00:36:36.110Z,19.01
2022-08-21T00:40:01.404Z,19.040001
2022-08-21T00:43:26.631Z,19.049999
2022-08-21T00:46:51.895Z,19.030001
2022-08-21T00:50:21.411Z,19.040001
2022-08-21T00:53:42.440Z,19.02
2022-08-21T00:57:07.749Z,18.99
2022-08-21T01:00:33.019Z,18.959999
2022-08-21T01:03:58.275Z,18.950001
2022-08-21T01:07:23.551Z,18.950001
2022-08-21T01:10:48.818Z,18.93
2022-08-21T01:14:14.072Z,18.940001
2022-08-21T01:17:39.364Z,18.98
2022-08-21T01:21:04.650Z,19.01
2022-08-21T01:24:29.928Z,19.02
2022-08-21T01:27:55.211Z,19
2022-08-21T01:31:24.755Z,18.99
2022-08-21T01:34:45.753Z,18.950001
2022-08-21T01:38:11.018Z,18.92
2022-08-21T01:41:36.285Z,18.9
2022-08-21T01:45:01.546Z,18.91
2022-08-21T01:48:26.796Z,18.9
2022-08-21T01:51:52.076Z,18.889999
2022-08-21T01:55:17.348Z,18.9
2022-08-21T01:58:42.598Z,18.92
2022-08-21T02:02:07.869Z,18.93
2022-08-21T02:05:33.141Z,18.940001
2022-08-21T02:08:58.414Z,18.940001
2022-08-21T02:12:23.694Z,18.92
2022-08-21T02:15:48.974Z,18.889999
2022-08-21T02:19:14.237Z,18.870001
2022-08-21T02:22:39.536Z,18.870001
2022-08-21T02:26:04.810Z,18.870001
2022-08-21T02:29:30.077Z,18.870001
2022-08-21T02:32:55.402Z,18.860001
2022-08-21T02:36:20.619Z,18.870001
2022-08-21T02:39:45.922Z,18.91
2022-08-21T02:43:11.155Z,18.950001
2022-08-21T02:46:36.423Z,18.959999
2022-08-21T02:50:01.704Z,18.969999
2022-08-21T02:53:26.964Z,18.98
2022-08-21T02:56:52.230Z,19.02
2022-08-21T03:00:17.500Z,19.040001
2022-08-21T03:03:42.758Z,19.1
2022-08-21T03:07:11.093Z,19.17
2022-08-21T03:10:33.301Z,19.190001
2022-08-21T03:13:58.566Z,19.25
2022-08-21T03:17:29.639Z,19.299999
2022-08-21T03:20:49.146Z,19.33
2022-08-21T03:24:14.409Z,19.35
2022-08-21T03:27:39.692Z,19.370001
2022-08-21T03:31:04.973Z,19.370001
2022-08-21T03:34:30.227Z,19.35
2022-08-21T03:37:55.498Z,19.33
2022-08-21T03:41:20.767Z,19.290001
2022-08-21T03:44:46.035Z,19.27
2022-08-21T03:48:11.295Z,19.290001
2022-08-21T03:51:36.585Z,19.290001
2022-08-21T03:55:01.858Z,19.299999
2022-08-21T03:58:27.130Z,19.32
2022-08-21T04:01:52.453Z,19.34
2022-08-21T04:05:17.673Z,19.379999
2022-08-21T04:08:42.961Z,19.379999
2022-08-21T04:12:08.237Z,19.379999
2022-08-21T04:15:33.509Z,19.389999
2022-08-21T04:18:58.774Z,19.41
2022-08-21T04:22:24.069Z,19.4
2022-08-21T04:25:49.359Z,19.4
2022-08-21T04:29:14.601Z,19.35
2022-08-21T04:32:39.870Z,19.33
2022-08-21T04:36:05.150Z,19.309999
2022-08-21T04:39:30.394Z,19.32
2022-08-21T04:42:55.669Z,19.32
2022-08-21T04:46:20.945Z,19.34
2022-08-21T04:49:46.236Z,19.35
2022-08-21T04:53:11.543Z,19.35
2022-08-21T04:56:36.802Z,19.360001
2022-08-21T05:00:02.078Z,19.35
2022-08-21T05:03:27.354Z,19.34
2022-08-21T05:06:52.627Z,19.32
2022-08-21T05:10:17.910Z,19.309999
2022-08-21T05:13:43.167Z,19.299999
2022-08-21T05:17:08.435Z,19.290001
2022-08-21T05:20:33.685Z,19.290001
2022-08-21T05:23:59.034Z,19.32
2022-08-21T05:27:24.303Z,19.35
2022-08-21T05:30:49.572Z,19.389999
2022-08-21T05:34:16.137Z,19.450001
2022-08-21T05:37:40.095Z,19.51
2022-08-21T05:41:05.423Z,19.549999
2022-08-21T05:44:30.696Z,19.57
2022-08-21T05:47:55.975Z,19.57
2022-08-21T05:51:21.320Z,19.58
2022-08-21T05:54:46.645Z,19.610001
2022-08-21T05:58:11.900Z,19.629999
2022-08-21T06:01:37.356Z,19.639999
2022-08-21T06:05:02.430Z,19.67
2022-08-21T06:08:27.687Z,19.719999
2022-08-21T06:11:52.949Z,19.719999
2022-08-21T06:15:18.504Z,19.73
2022-08-21T06:18:43.773Z,19.76
2022-08-21T06:22:09.086Z,19.790001
2022-08-21T06:25:34.396Z,19.780001
2022-08-21T06:28:59.700Z,19.809999
2022-08-21T06:32:24.974Z,19.879999
2022-08-21T06:35:50.331Z,19.91
2022-08-21T06:39:16.713Z,19.99
2022-08-21T06:42:41.512Z,20.059999
2022-08-21T06:46:06.565Z,20.139999
2022-08-21T06:49:31.835Z,20.15
2022-08-21T06:52:57.246Z,20.15
2022-08-21T06:56:22.543Z,20.18
2022-08-21T06:59:47.866Z,20.209999
2022-08-21T07:03:13.133Z,20.26
2022-08-21T07:06:38.394Z,20.35
2022-08-21T07:10:03.665Z,20.440001
2022-08-21T07:13:29.142Z,20.5
2022-08-21T07:16:54.460Z,20.51
2022-08-21T07:20:19.716Z,20.530001
2022-08-21T07:23:44.969Z,20.58
2022-08-21T07:27:10.363Z,20.620001
2022-08-21T07:30:35.462Z,20.690001
2022-08-21T07:34:00.731Z,20.719999
2022-08-21T07:37:25.968Z,20.73
2022-08-21T07:40:51.234Z,20.77
2022-08-21T07:44:16.482Z,20.84
2022-08-21T07:47:43.006Z,20.879999
2022-08-21T07:51:06.971Z,20.959999
2022-08-21T07:54:33.751Z,21.059999
2022-08-21T07:57:57.551Z,21.120001
2022-08-21T08:01:22.874Z,21.18
2022-08-21T08:04:50.566Z,21.26
2022-08-21T08:08:13.278Z,21.32
2022-08-21T08:11:38.559Z,21.35
2022-08-21T08:15:03.800Z,21.370001
2022-08-21T08:18:29.001Z,21.360001
2022-08-21T08:21:54.268Z,21.35
2022-08-21T08:25:19.513Z,21.34
2022-08-21T08:28:44.776Z,21.299999
2022-08-21T08:32:10.033Z,21.26
2022-08-21T08:35:35.292Z,21.27
2022-08-21T08:39:00.549Z,21.299999
2022-08-21T08:42:32.464Z,21.34
2022-08-21T08:45:51.127Z,21.389999
2022-08-21T08:49:16.404Z,21.469999
2022-08-21T08:52:41.658Z,21.5
2022-08-21T08:56:06.969Z,21.540001
2022-08-21T08:59:34.075Z,21.549999
2022-08-21T09:02:59.426Z,21.57
2022-08-21T09:06:24.906Z,21.549999
2022-08-21T09:09:50.374Z,21.620001
2022-08-21T09:13:15.986Z,21.709999
2022-08-21T09:16:41.902Z,21.75
2022-08-21T09:20:08.554Z,21.809999
2022-08-21T09:23:33.747Z,21.85
2022-08-21T09:26:58.973Z,21.870001
2022-08-21T09:30:24.527Z,21.870001
2022-08-21T09:33:49.772Z,21.799999
2022-08-21T09:37:15.036Z,21.76
2022-08-21T09:40:40.344Z,21.73
2022-08-21T09:44:05.536Z,21.67
2022-08-21T09:47:30.774Z,21.66
2022-08-21T09:50:56.009Z,21.77
2022-08-21T09:54:21.233Z,21.92
2022-08-21T09:57:50.379Z,22.1
2022-08-21T10:01:11.805Z,22.110001
2022-08-21T10:04:37.008Z,22.17
2022-08-21T10:08:02.280Z,22.25
2022-08-21T10:11:27.514Z,22.32
2022-08-21T10:14:52.741Z,22.5
2022-08-21T10:18:18.186Z,22.74
2022-08-21T10:21:43.489Z,22.870001
2022-08-21T10:25:08.864Z,22.77
2022-08-21T10:28:34.562Z,22.68
2022-08-21T10:31:59.850Z,22.76
2022-08-21T10:35:26.673Z,22.93
2022-08-21T10:39:12.006Z,23.139999
2022-08-21T10:42:22.645Z,23.35
2022-08-21T10:45:45.888Z,23.469999
2022-08-21T10:49:11.197Z,23.6
2022-08-21T10:52:36.482Z,23.799999
2022-08-21T10:56:01.800Z,23.93
2022-08-21T10:59:27.083Z,23.860001
2022-08-21T11:02:52.433Z,23.719999
2022-08-21T11:06:17.611Z,23.57
2022-08-21T11:09:42.893Z,23.6
2022-08-21T11:13:08.723Z,23.65
2022-08-21T11:16:34.041Z,23.719999
2022-08-21T11:19:59.295Z,23.809999
2022-08-21T11:23:24.550Z,23.959999
2022-08-21T11:26:51.141Z,23.99
2022-08-21T11:30:15.067Z,23.950001
2022-08-21T11:33:40.309Z,23.889999
2022-08-21T11:37:05.667Z,23.809999
2022-08-21T11:40:31.247Z,23.870001
2022-08-21T11:43:56.743Z,24.040001
2022-08-21T11:47:22.017Z,24.190001
2022-08-21T11:50:47.590Z,24.309999
2022-08-21T11:54:12.861Z,24.33
2022-08-21T11:57:38.066Z,24.360001
2022-08-21T12:01:03.341Z,24.32
2022-08-21T12:04:28.580Z,24.26
2022-08-21T12:07:55.386Z,24.33
2022-08-21T12:11:19.149Z,24.42
2022-08-21T12:14:44.445Z,24.559999
2022-08-21T12:18:09.717Z,24.629999
2022-08-21T12:21:35.574Z,24.629999
2022-08-21T12:25:00.865Z,24.76
2022-08-21T12:28:26.263Z,24.790001
2022-08-21T12:31:52.438Z,24.700001
2022-08-21T12:35:23.236Z,24.58
2022-08-21T12:38:43.036Z,24.559999
2022-08-21T12:42:08.328Z,24.51
2022-08-21T12:45:33.619Z,24.41
2022-08-21T12:48:58.902Z,24.389999
2022-08-21T12:52:24.161Z,24.57
2022-08-21T12:55:50.240Z,24.77
2022-08-21T12:59:15.507Z,24.85
2022-08-21T13:02:40.802Z,24.790001
2022-08-21T13:06:06.072Z,24.690001
2022-08-21T13:09:31.354Z,24.540001
2022-08-21T13:12:56.742Z,24.440001
2022-08-21T13:16:21.942Z,24.540001
2022-08-21T13:19:47.209Z,24.65
2022-08-21T13:23:12.485Z,24.74
2022-08-21T13:26:37.756Z,24.809999
2022-08-21T13:30:03.094Z,24.85
2022-08-21T13:33:34.872Z,24.940001
2022-08-21T13:36:53.596Z,25.02
2022-08-21T13:40:18.922Z,25
2022-08-21T13:43:44.152Z,25.02
2022-08-21T13:47:09.444Z,25.1
2022-08-21T13:50:34.713Z,25.209999
2022-08-21T13:53:59.973Z,25.309999
2022-08-21T13:57:25.279Z,25.42
2022-08-21T14:00:50.541Z,25.459999
2022-08-21T14:04:15.831Z,25.34
2022-08-21T14:07:42.265Z,25.1
2022-08-21T14:11:07.552Z,24.91
2022-08-21T14:14:32.820Z,24.76
2022-08-21T14:18:01.099Z,24.690001
2022-08-21T14:21:26.390Z,24.68
2022-08-21T14:24:54.995Z,24.66
2022-08-21T14:28:19.546Z,24.719999
2022-08-21T15:03:50.483Z,22.76
2022-08-21T15:07:15.945Z,23.709999
2022-08-21T15:10:52.560Z,23.959999
2022-08-21T15:14:06.509Z,24.110001
2022-08-21T15:17:31.797Z,24.200001
2022-08-21T15:20:57.081Z,24.290001
2022-08-21T15:24:22.413Z,24.34
2022-08-21T15:27:47.732Z,24.35
2022-08-21T15:31:13.043Z,24.35
2022-08-21T15:34:38.334Z,24.360001
2022-08-21T15:38:03.634Z,24.35
2022-08-21T15:41:28.964Z,24.360001
2022-08-21T15:44:54.218Z,24.370001
2022-08-21T15:48:19.553Z,24.43
2022-08-21T15:51:44.868Z,24.459999
2022-08-21T15:55:10.154Z,24.49
2022-08-21T15:58:35.432Z,24.43
2022-08-21T16:02:00.873Z,24.4
2022-08-21T16:05:26.093Z,24.34
2022-08-21T16:08:51.403Z,24.27
2022-08-21T16:12:16.713Z,24.280001
2022-08-21T16:15:42.004Z,24.27
2022-08-21T16:19:07.350Z,24.280001
2022-08-21T16:22:39.947Z,24.25
2022-08-21T16:25:58.042Z,24.24
2022-08-21T16:29:23.415Z,24.200001
2022-08-21T16:32:48.883Z,24.18
2022-08-21T16:36:14.206Z,24.129999
2022-08-21T16:39:39.797Z,24.049999
2022-08-21T16:43:05.128Z,23.98
2022-08-21T16:46:30.522Z,23.940001
2022-08-21T16:49:55.858Z,23.879999
2022-08-21T16:53:21.148Z,23.860001
2022-08-21T16:56:47.805Z,23.84
2022-08-21T17:00:11.777Z,23.82
2022-08-21T17:03:37.082Z,23.77
2022-08-21T17:07:02.387Z,23.709999
2022-08-21T17:10:33.933Z,23.68
2022-08-21T17:14:00.824Z,23.65
2022-08-21T17:17:26.139Z,23.610001
2022-08-21T17:20:51.455Z,23.57
2022-08-21T17:24:16.774Z,23.51
2022-08-21T17:27:42.081Z,23.43
2022-08-21T17:31:10.002Z,23.34
2022-08-21T17:34:32.764Z,23.280001
2022-08-21T17:37:58.093Z,23.190001
2022-08-21T17:41:23.540Z,23.1
2022-08-21T17:44:48.929Z,23.030001
2022-08-21T17:48:14.263Z,22.99
2022-08-21T17:51:39.619Z,22.969999
2022-08-21T17:55:04.960Z,22.889999
2022-08-21T17:58:30.426Z,22.83
2022-08-21T18:01:55.795Z,22.799999
2022-08-21T18:05:21.229Z,22.76
2022-08-21T18:08:46.592Z,22.700001
2022-08-21T18:12:11.938Z,22.65
2022-08-21T18:15:37.338Z,22.559999
2022-08-21T18:19:02.760Z,22.450001
2022-08-21T18:22:28.574Z,22.32
2022-08-21T18:25:53.907Z,22.129999
2022-08-21T18:29:19.265Z,21.889999
2022-08-21T18:32:44.581Z,21.73
2022-08-21T18:36:09.888Z,21.59
2022-08-21T18:39:36.616Z,21.48
2022-08-21T18:43:00.779Z,21.360001
2022-08-21T18:46:25.913Z,21.25
2022-08-21T18:53:18.327Z,21.040001
2022-08-21T18:56:42.021Z,21.01
2022-08-21T19:00:07.386Z,21.02
2022-08-21T19:03:32.777Z,21.040001
2022-08-21T19:06:58.102Z,21.040001
2022-08-21T19:10:24.839Z,20.950001
2022-08-21T19:13:48.748Z,20.91
2022-08-21T19:17:14.046Z,20.879999
2022-08-21T19:20:39.328Z,20.84
2022-08-21T19:24:04.580Z,20.84
2022-08-21T19:27:29.846Z,20.83
2022-08-21T19:30:55.114Z,20.780001
2022-08-21T19:34:20.380Z,20.74
2022-08-21T19:37:45.635Z,20.65
2022-08-21T19:41:10.904Z,20.57
2022-08-21T19:44:36.161Z,20.5
2022-08-21T19:48:01.437Z,20.440001
2022-08-21T19:51:26.678Z,20.360001
2022-08-21T19:54:51.952Z,20.290001
2022-08-21T19:58:17.257Z,20.209999
2022-08-21T20:01:42.517Z,20.17
2022-08-21T20:05:07.788Z,20.129999
2022-08-21T20:08:33.051Z,20.129999
2022-08-21T20:11:58.311Z,20.059999
2022-08-21T20:15:23.561Z,20.030001
2022-08-21T20:18:48.837Z,19.959999
2022-08-21T20:22:14.098Z,19.870001
2022-08-21T20:25:39.346Z,19.809999
2022-08-21T20:29:04.603Z,19.77
2022-08-21T20:32:29.866Z,19.73
2022-08-21T20:35:55.117Z,19.709999
2022-08-21T20:39:20.374Z,19.700001
2022-08-21T20:42:45.629Z,19.709999
2022-08-21T20:46:10.882Z,19.700001
2022-08-21T20:49:36.150Z,19.690001
2022-08-21T20:53:01.446Z,19.66
2022-08-21T20:56:26.673Z,19.629999
2022-08-21T20:59:51.943Z,19.559999
2022-08-21T21:03:17.224Z,19.48
2022-08-21T21:06:42.493Z,19.35
2022-08-21T21:10:07.739Z,19.25
2022-08-21T21:13:33.072Z,19.200001
2022-08-21T21:16:58.262Z,19.16
2022-08-21T21:20:25.002Z,19.1
2022-08-21T21:23:48.787Z,19.059999
2022-08-21T21:27:14.063Z,19.040001
2022-08-21T21:30:39.309Z,19
2022-08-21T21:34:04.575Z,18.959999
2022-08-21T21:37:29.818Z,18.93
2022-08-21T21:40:55.079Z,18.91
2022-08-21T21:44:21.232Z,18.870001
2022-08-21T21:47:45.609Z,18.83
2022-08-21T21:51:11.770Z,18.799999
2022-08-21T21:54:36.106Z,18.74
2022-08-21T21:58:01.384Z,18.690001
2022-08-21T22:01:26.640Z,18.639999
2022-08-21T22:04:51.873Z,18.6
2022-08-21T22:08:17.198Z,18.559999
2022-08-21T22:11:42.461Z,18.530001
2022-08-21T22:15:07.721Z,18.51
2022-08-21T22:18:32.986Z,18.459999
2022-08-21T22:21:58.243Z,18.42
2022-08-21T22:25:23.506Z,18.389999
2022-08-21T22:28:48.774Z,18.389999
2022-08-21T22:32:14.089Z,18.389999
2022-08-21T22:35:39.304Z,18.4
2022-08-21T22:39:04.560Z,18.41
2022-08-21T22:42:29.821Z,18.4
2022-08-21T22:45:55.087Z,18.370001
2022-08-21T22:49:20.330Z,18.32
2022-08-21T22:52:45.610Z,18.32
2022-08-21T22:56:10.858Z,18.309999
2022-08-21T22:59:36.120Z,18.280001
2022-08-21T23:03:01.578Z,18.219999
2022-08-21T23:06:26.643Z,18.18
2022-08-21T23:09:53.298Z,18.190001
2022-08-21T23:13:17.161Z,18.17
2022-08-21T23:16:43.110Z,18.129999
2022-08-21T23:20:07.706Z,18.09
2022-08-21T23:26:58.225Z,18.049999
2022-08-21T23:30:23.489Z,18.030001
2022-08-21T23:33:48.738Z,18.01
2022-08-21T23:37:14.043Z,17.99
2022-08-21T23:40:39.269Z,17.969999
2022-08-21T23:44:04.514Z,17.969999
2022-08-21T23:47:29.781Z,17.950001
2022-08-21T23:50:55.049Z,17.92
2022-08-21T23:54:20.313Z,17.9
2022-08-21T23:57:45.577Z,17.860001
